Terminal Aerodrome Forecast
Issued by NWS

Home | Current Version | Previous Version | Graphics & Text | Print | Product List | Glossary On
Versions: 1 2 3 4 5 6 7 8 9 10 11 12 13 14 15 16 17 18 19 20
000
FTUS43 KICT 270300 AAB
TAFSLN
TAF AMD
KSLN 270300Z 2703/2724 06017KT P6SM SCT070 BKN300
     FM270600 07009KT P6SM SCT080
     FM271300 12007KT P6SM SCT070
     FM271700 16013KT P6SM SCT090=

USA.gov is the U.S. government's official web portal to all federal, state and local government web resources and services.